Pleasanton, Nebraska
Current Conditions -  °F | °C
As of 2:35 AM on Friday 19 Dec 2014 (Local Time) from KEAR Reporting Station
Overcast Overcast  
Wind Chill: 19°   Ceiling: 500
Heat Index: 28°   Visibility: 7mi
Dew Point: 27°   Wind: 10mph
Humidity: 93%   Direction: 190°S
Pressure: 30.15"   Gusts: NA
Location:  40.97°N, 99.09°W
Report Text: KEAR 190835Z 19009KT 7SM OVC005 M02/M03 A3015 RMK AO1
Loading
Personal Weather Stations






























Interactive Weather Map New forecast layout! Learn more

10-Day Weather Forecast

Advertisements
Track Severe Weather on mobile